Time;durP1;ratioP1;P1;durP2;ratioP2;P2;SDS_P1;SDS_P2;PMS_P1;PMS_P2;Temp;Humidity;BMP_temperature;BMP_pressure;BME280_temperature;BME280_humidity;BME280_pressure;Samples;Min_cycle;Max_cycle;Signal;HPM_P1;HPM_P2
2021/01/04 00:02:05;;;;;;;4.80;4.17;;;7.80;90.40;;;;;;4942644;29;20856;-73
2021/01/04 00:04:55;;;;;;;5.80;4.90;;;7.80;90.30;;;;;;4943070;29;20391;-74
2021/01/04 00:07:49;;;;;;;7.33;4.93;;;7.90;90.30;;;;;;4943315;29;20266;-74
2021/01/04 00:10:35;;;;;;;4.77;4.27;;;7.80;90.20;;;;;;4942343;29;20285;-74
2021/01/04 00:13:11;;;;;;;5.20;4.70;;;7.80;90.10;;;;;;4942686;29;20167;-74
2021/01/04 00:15:56;;;;;;;6.53;4.63;;;7.80;90.10;;;;;;4943308;28;20939;-74
2021/01/04 00:19:05;;;;;;;4.87;4.37;;;7.80;89.90;;;;;;4945626;29;20218;-74
2021/01/04 00:21:59;;;;;;;6.70;4.40;;;7.80;89.90;;;;;;4889517;29;20257;-74
2021/01/04 00:24:50;;;;;;;3.73;3.43;;;7.80;90.20;;;;;;4889146;29;20968;-74
2021/01/04 00:27:36;;;;;;;5.17;4.20;;;7.80;90.30;;;;;;4888251;29;20287;-74
2021/01/04 00:30:27;;;;;;;6.90;3.83;;;7.80;90.40;;;;;;4889158;29;20616;-74
2021/01/04 00:32:57;;;;;;;4.13;3.50;;;7.80;90.40;;;;;;4878816;29;20280;-74
2021/01/04 00:35:25;;;;;;;4.27;3.30;;;7.70;90.70;;;;;;4897738;29;20197;-74
2021/01/04 00:38:21;;;;;;;3.57;3.20;;;7.70;90.70;;;;;;4921781;29;20227;-74
2021/01/04 00:40:58;;;;;;;4.00;3.60;;;7.70;90.70;;;;;;4911478;29;20190;-74
2021/01/04 00:43:45;;;;;;;4.20;3.43;;;7.70;91.40;;;;;;4927061;29;20262;-74
2021/01/04 00:46:15;;;;;;;4.43;3.03;;;7.60;91.30;;;;;;4926891;29;20192;-74
2021/01/04 00:48:59;;;;;;;5.33;3.10;;;7.60;91.70;;;;;;4910733;29;20310;-74
2021/01/04 00:51:47;;;;;;;3.13;2.80;;;7.60;91.60;;;;;;4926395;29;20203;-74
2021/01/04 00:54:31;;;;;;;3.43;3.20;;;7.60;91.80;;;;;;4910163;29;20626;-74
2021/01/04 00:57:15;;;;;;;3.30;3.00;;;7.60;92.30;;;;;;4926128;29;20229;-73
2021/01/04 01:00:07;;;;;;;4.73;3.43;;;7.60;92.20;;;;;;4947073;28;20198;-73
2021/01/04 01:03:12;;;;;;;3.77;3.17;;;7.60;92.20;;;;;;4964888;28;20190;-73
2021/01/04 01:06:03;;;;;;;3.60;3.30;;;7.60;92.30;;;;;;5006978;28;20172;-74
2021/01/04 01:08:33;;;;;;;3.50;2.90;;;7.60;92.20;;;;;;5006806;28;20306;-74
2021/01/04 01:11:05;;;;;;;6.13;3.60;;;7.60;92.60;;;;;;5006323;28;20189;-73
2021/01/04 01:13:30;;;;;;;3.37;3.10;;;7.60;92.50;;;;;;5007328;28;20165;-73
2021/01/04 01:16:14;;;;;;;3.50;3.20;;;7.60;92.40;;;;;;5006209;28;20711;-73
2021/01/04 01:18:43;;;;;;;3.93;2.80;;;7.60;92.60;;;;;;5006443;28;20205;-73
2021/01/04 01:21:10;;;;;;;23.63;12.20;;;7.60;93.10;;;;;;5006176;28;20267;-73
2021/01/04 01:23:39;;;;;;;26.07;14.23;;;7.60;92.90;;;;;;5006940;28;20188;-73
2021/01/04 01:26:32;;;;;;;26.30;13.83;;;7.60;92.60;;;;;;5006042;28;20693;-74
2021/01/04 01:29:35;;;;;;;28.67;15.73;;;7.50;92.50;;;;;;5001994;28;20260;-74
2021/01/04 01:32:05;;;;;;;29.27;15.47;;;7.50;92.40;;;;;;5006034;28;20220;-73
2021/01/04 01:34:51;;;;;;;32.93;16.27;;;7.50;92.50;;;;;;5005057;28;20182;-75
2021/01/04 01:37:53;;;;;;;23.70;14.03;;;7.50;92.60;;;;;;5021027;28;20205;-73
2021/01/04 01:40:53;;;;;;;28.53;13.97;;;7.40;92.70;;;;;;5006342;28;20242;-75
2021/01/04 01:43:31;;;;;;;26.47;13.90;;;7.30;93.10;;;;;;5006050;28;20180;-74
2021/01/04 01:46:07;;;;;;;25.50;12.90;;;7.30;93.30;;;;;;5005724;28;20180;-74
2021/01/04 01:48:55;;;;;;;25.80;12.03;;;7.20;93.40;;;;;;5005306;28;20185;-75
2021/01/04 01:51:58;;;;;;;19.07;11.37;;;7.30;93.60;;;;;;4998331;28;20204;-75
2021/01/04 01:54:45;;;;;;;14.13;8.73;;;7.30;93.90;;;;;;5005476;28;20188;-74
2021/01/04 01:57:10;;;;;;;14.83;9.23;;;7.20;94.50;;;;;;5005869;28;20709;-74
2021/01/04 01:59:54;;;;;;;8.73;7.30;;;7.20;94.90;;;;;;5020759;28;20199;-74
2021/01/04 02:02:38;;;;;;;8.37;6.60;;;7.10;95.20;;;;;;5005733;28;20276;-74
2021/01/04 02:05:39;;;;;;;11.27;6.87;;;7.10;95.50;;;;;;5004180;28;20197;-74
2021/01/04 02:08:22;;;;;;;9.83;6.53;;;7.00;95.50;;;;;;5005423;28;20172;-74
2021/01/04 02:10:53;;;;;;;5.93;5.33;;;7.00;95.30;;;;;;5005334;28;20215;-74
2021/01/04 02:13:28;;;;;;;10.00;6.77;;;7.10;95.50;;;;;;5020697;28;20184;-74
2021/01/04 02:15:57;;;;;;;7.80;5.97;;;7.10;95.60;;;;;;5005906;28;20179;-74
2021/01/04 02:18:32;;;;;;;7.30;5.57;;;7.20;95.30;;;;;;5019888;28;20204;-74
2021/01/04 02:21:03;;;;;;;5.63;5.00;;;7.20;95.20;;;;;;5020694;28;20181;-74
2021/01/04 02:23:51;;;;;;;8.20;5.17;;;7.20;95.20;;;;;;5019731;28;20192;-73
2021/01/04 02:26:24;;;;;;;11.67;6.20;;;7.30;95.20;;;;;;5004963;28;20194;-73
2021/01/04 02:29:12;;;;;;;7.40;5.20;;;7.30;95.00;;;;;;5005726;28;20196;-73
2021/01/04 02:31:42;;;;;;;7.27;5.07;;;7.40;94.80;;;;;;5005248;28;20177;-74
2021/01/04 02:34:11;;;;;;;7.03;5.03;;;7.50;94.70;;;;;;5003790;28;20181;-73
2021/01/04 02:36:53;;;;;;;6.37;5.70;;;7.50;94.50;;;;;;5004787;28;20187;-73
2021/01/04 02:39:32;;;;;;;8.27;4.80;;;7.60;94.80;;;;;;5004244;28;20185;-73
2021/01/04 02:42:02;;;;;;;7.10;4.73;;;7.60;94.70;;;;;;5004593;28;20973;-73
2021/01/04 02:44:28;;;;;;;6.33;5.10;;;7.70;94.60;;;;;;5019497;28;20840;-72
2021/01/04 02:47:14;;;;;;;7.80;5.47;;;7.70;94.70;;;;;;5003403;28;20188;-73
2021/01/04 02:49:50;;;;;;;6.30;5.40;;;7.80;94.70;;;;;;4999305;28;20177;-72
2021/01/04 02:52:43;;;;;;;7.23;4.60;;;7.80;94.80;;;;;;5019253;28;20177;-73
2021/01/04 02:55:19;;;;;;;7.50;5.07;;;7.80;94.50;;;;;;4944113;29;20187;-73
2021/01/04 02:58:15;;;;;;;5.43;4.77;;;7.80;94.40;;;;;;4943836;29;20729;-74
2021/01/04 03:00:45;;;;;;;5.27;4.67;;;7.90;94.30;;;;;;4905519;29;20192;-73
2021/01/04 03:03:11;;;;;;;4.90;4.47;;;7.90;94.40;;;;;;4899311;29;20192;-73
2021/01/04 03:05:38;;;;;;;4.33;3.70;;;7.90;94.50;;;;;;4880564;29;20801;-73
2021/01/04 03:08:04;;;;;;;6.03;4.13;;;7.90;94.70;;;;;;4899043;29;20191;-74
2021/01/04 03:10:35;;;;;;;6.07;4.80;;;7.90;94.90;;;;;;4887783;29;20268;-74
2021/01/04 03:13:45;;;;;;;6.00;3.97;;;7.90;95.00;;;;;;4886368;29;20197;-74
2021/01/04 03:16:30;;;;;;;4.73;4.03;;;7.90;94.80;;;;;;4849729;29;20295;-74
2021/01/04 03:19:03;;;;;;;6.43;4.53;;;7.80;95.10;;;;;;4849187;29;20292;-74
2021/01/04 03:21:29;;;;;;;5.47;4.40;;;7.80;95.40;;;;;;4849660;29;20765;-74
2021/01/04 03:23:57;;;;;;;4.07;3.77;;;7.70;95.50;;;;;;4849480;29;20718;-74
2021/01/04 03:26:40;;;;;;;4.33;4.03;;;7.70;95.60;;;;;;4849827;29;20227;-74
2021/01/04 03:29:06;;;;;;;4.53;3.60;;;7.70;95.40;;;;;;4832178;29;20198;-75
2021/01/04 03:31:31;;;;;;;4.90;3.60;;;7.70;95.60;;;;;;4860784;29;20211;-73
2021/01/04 03:33:57;;;;;;;3.90;3.40;;;7.70;95.60;;;;;;4905413;29;20938;-73
2021/01/04 03:36:23;;;;;;;7.17;4.37;;;7.70;95.50;;;;;;4907344;29;20242;-74
2021/01/04 03:38:48;;;;;;;6.07;4.10;;;7.70;95.30;;;;;;4941226;29;20238;-73
2021/01/04 03:41:17;;;;;;;4.40;4.00;;;7.80;95.20;;;;;;4941278;29;20183;-74
2021/01/04 03:43:43;;;;;;;5.20;4.40;;;7.80;95.20;;;;;;4942875;29;20245;-73
2021/01/04 03:46:08;;;;;;;4.43;4.03;;;7.80;95.10;;;;;;4943370;29;20199;-73
2021/01/04 03:48:37;;;;;;;5.30;4.43;;;7.80;95.10;;;;;;4942897;29;20191;-73
2021/01/04 03:51:03;;;;;;;5.07;4.57;;;7.80;95.20;;;;;;4949521;28;20194;-73
2021/01/04 03:53:28;;;;;;;4.93;4.27;;;7.80;95.10;;;;;;4993508;28;21053;-74
2021/01/04 03:55:54;;;;;;;5.43;4.40;;;7.80;95.00;;;;;;5007605;28;20597;-74
2021/01/04 03:58:20;;;;;;;6.00;5.07;;;7.80;95.10;;;;;;5007474;28;20733;-74
2021/01/04 04:00:45;;;;;;;5.17;4.17;;;7.80;95.20;;;;;;5008542;28;20177;-74
2021/01/04 04:03:11;;;;;;;7.90;4.30;;;7.80;95.20;;;;;;5007971;28;20213;-74
2021/01/04 04:05:37;;;;;;;5.53;4.43;;;7.80;95.30;;;;;;5008280;28;20177;-74
2021/01/04 04:08:04;;;;;;;7.43;4.57;;;7.70;95.40;;;;;;5007804;28;20181;-74
2021/01/04 04:10:30;;;;;;;5.73;4.47;;;7.70;95.50;;;;;;5007433;28;20211;-74
2021/01/04 04:12:56;;;;;;;5.73;4.63;;;7.60;95.60;;;;;;5007208;28;20704;-74
2021/01/04 04:15:22;;;;;;;6.43;4.97;;;7.60;96.50;;;;;;5006167;28;20185;-74
2021/01/04 04:17:49;;;;;;;4.60;4.10;;;7.60;96.30;;;;;;5007419;28;20201;-74
2021/01/04 04:20:19;;;;;;;4.57;4.17;;;7.60;96.10;;;;;;5007504;28;20235;-73
2021/01/04 04:22:49;;;;;;;5.03;4.50;;;7.60;96.00;;;;;;5022639;28;20165;-74
2021/01/04 04:25:18;;;;;;;5.10;4.60;;;7.60;96.00;;;;;;5022570;28;20185;-73
2021/01/04 04:27:44;;;;;;;6.63;4.03;;;7.60;96.00;;;;;;5007410;28;20188;-74
2021/01/04 04:30:13;;;;;;;6.43;4.97;;;7.70;96.10;;;;;;5007453;28;20203;-73
2021/01/04 04:32:38;;;;;;;7.20;5.33;;;7.70;96.30;;;;;;5006019;28;20264;-74
2021/01/04 04:35:06;;;;;;;7.27;5.63;;;7.70;96.40;;;;;;5007867;28;20361;-74
2021/01/04 04:37:31;;;;;;;7.50;6.10;;;7.60;97.20;;;;;;5006770;28;20213;-74
2021/01/04 04:39:57;;;;;;;6.20;4.83;;;7.60;96.80;;;;;;5006804;28;20192;-75
2021/01/04 04:42:23;;;;;;;5.93;5.07;;;7.60;96.70;;;;;;5007126;28;20183;-75
2021/01/04 04:45:03;;;;;;;7.80;5.03;;;7.60;96.50;;;;;;5022083;28;20184;-74
2021/01/04 04:47:50;;;;;;;7.13;5.67;;;7.60;96.30;;;;;;5022229;28;20804;-74
2021/01/04 04:50:37;;;;;;;8.30;5.87;;;7.70;96.40;;;;;;5006496;28;20279;-75
2021/01/04 04:53:24;;;;;;;9.10;5.73;;;7.70;96.40;;;;;;5006796;28;20177;-75
2021/01/04 04:56:12;;;;;;;6.00;5.40;;;7.70;96.70;;;;;;5007186;28;20183;-74
2021/01/04 04:58:49;;;;;;;9.13;6.63;;;7.70;96.20;;;;;;5006665;28;20584;-74
2021/01/04 05:01:43;;;;;;;7.60;5.80;;;7.70;96.50;;;;;;5006871;28;20172;-74
2021/01/04 05:04:33;;;;;;;6.37;5.63;;;7.80;96.30;;;;;;5006540;28;20177;-74
2021/01/04 05:07:01;;;;;;;6.77;5.30;;;7.80;96.60;;;;;;4993642;28;20247;-74
2021/01/04 05:09:53;;;;;;;11.37;6.33;;;7.80;96.60;;;;;;5021442;28;20192;-74
2021/01/04 05:12:40;;;;;;;10.17;6.20;;;7.90;96.30;;;;;;5006290;28;20177;-75
2021/01/04 05:15:06;;;;;;;9.80;6.70;;;7.90;96.50;;;;;;5021986;28;20747;-74
2021/01/04 05:17:44;;;;;;;9.57;6.63;;;7.90;96.50;;;;;;5006699;28;20357;-75
2021/01/04 05:20:42;;;;;;;8.87;6.57;;;7.90;96.30;;;;;;5005912;28;20169;-74
2021/01/04 05:23:55;;;;;;;10.23;6.43;;;7.90;96.40;;;;;;4943663;29;20187;-74
2021/01/04 05:26:33;;;;;;;8.73;7.00;;;7.90;96.20;;;;;;4945424;29;20250;-74
2021/01/04 05:28:58;;;;;;;11.73;6.93;;;8.00;96.50;;;;;;4929438;29;20206;-74
2021/01/04 05:31:38;;;;;;;8.87;7.37;;;7.90;96.60;;;;;;4945461;29;20198;-74
2021/01/04 05:34:27;;;;;;;10.93;8.00;;;7.90;96.50;;;;;;4935512;29;20197;-74
2021/01/04 05:37:22;;;;;;;8.03;6.67;;;7.90;96.40;;;;;;4944773;29;20218;-74
2021/01/04 05:40:20;;;;;;;10.07;7.33;;;7.90;96.40;;;;;;4948624;29;20187;-81
2021/01/04 05:43:11;;;;;;;8.13;7.13;;;7.90;96.40;;;;;;4932995;29;20310;-82
2021/01/04 05:46:01;;;;;;;9.47;6.43;;;7.90;96.60;;;;;;4929665;29;20192;-80
2021/01/04 05:48:41;;;;;;;6.60;6.07;;;7.90;97.00;;;;;;4931027;29;20244;-76
2021/01/04 05:51:28;;;;;;;7.27;5.93;;;7.90;97.00;;;;;;4946314;29;20187;-80
2021/01/04 05:53:54;;;;;;;7.00;5.03;;;7.80;97.40;;;;;;4948693;29;20175;-79
2021/01/04 05:56:22;;;;;;;7.23;6.17;;;7.80;97.60;;;;;;4949171;29;20190;-78
2021/01/04 05:58:50;;;;;;;6.83;4.90;;;7.80;97.50;;;;;;4959143;28;20352;-80
2021/01/04 06:01:23;;;;;;;7.37;5.33;;;7.80;97.80;;;;;;4995335;28;20256;-78
2021/01/04 06:03:59;;;;;;;8.77;5.70;;;7.80;98.10;;;;;;5023906;28;20700;-83
2021/01/04 06:06:53;;;;;;;5.30;4.73;;;7.70;98.10;;;;;;5006508;28;20172;-84
2021/01/04 06:09:20;;;;;;;5.30;4.80;;;7.70;98.20;;;;;;5022177;28;20185;-82
2021/01/04 06:11:55;;;;;;;7.30;5.87;;;7.70;98.50;;;;;;5006068;28;20268;-83
2021/01/04 06:14:25;;;;;;;7.20;5.63;;;7.70;98.10;;;;;;5022035;28;20189;-82
2021/01/04 06:17:06;;;;;;;5.07;4.57;;;7.70;98.20;;;;;;5022244;28;20291;-83
2021/01/04 06:19:42;;;;;;;6.23;5.07;;;7.80;98.30;;;;;;5007610;28;20169;-84
2021/01/04 06:22:14;;;;;;;5.17;4.50;;;7.80;97.80;;;;;;5024645;28;20165;-83
2021/01/04 06:24:41;;;;;;;4.60;4.23;;;7.90;98.00;;;;;;5007950;28;20204;-83
2021/01/04 06:27:09;;;;;;;5.33;4.83;;;7.90;98.10;;;;;;5008040;28;20177;-83
2021/01/04 06:29:47;;;;;;;5.10;4.60;;;7.90;98.10;;;;;;5024346;28;20193;-84
2021/01/04 06:32:34;;;;;;;4.13;3.83;;;7.90;97.80;;;;;;5008837;28;20230;-79
2021/01/04 06:35:01;;;;;;;3.70;3.33;;;7.90;97.90;;;;;;5008770;28;20173;-77
2021/01/04 06:37:30;;;;;;;3.73;3.30;;;8.00;98.10;;;;;;5008916;28;20718;-80
2021/01/04 06:40:30;;;;;;;4.03;3.57;;;8.00;98.20;;;;;;5010945;28;20177;-80
2021/01/04 06:42:56;;;;;;;5.20;3.30;;;8.10;97.70;;;;;;5031506;28;20179;-80
2021/01/04 06:45:44;;;;;;;4.77;3.50;;;8.10;97.90;;;;;;5024459;28;20862;-84
2021/01/04 06:48:24;;;;;;;4.33;3.80;;;8.20;97.40;;;;;;5024841;28;20176;-82
2021/01/04 06:51:05;;;;;;;5.40;4.10;;;8.20;97.30;;;;;;5033238;28;20177;-82
2021/01/04 06:54:01;;;;;;;5.03;4.63;;;8.20;97.20;;;;;;5020388;28;20184;-79
2021/01/04 06:56:36;;;;;;;5.87;4.97;;;8.30;97.20;;;;;;5020412;28;20173;-78
2021/01/04 06:59:23;;;;;;;6.40;5.47;;;8.30;97.20;;;;;;5006029;28;20192;-79
2021/01/04 07:02:16;;;;;;;6.97;6.10;;;8.40;96.90;;;;;;5006779;28;20180;-79
2021/01/04 07:05:05;;;;;;;7.23;6.53;;;8.40;97.10;;;;;;5007865;28;21044;-79
2021/01/04 07:07:51;;;;;;;7.40;6.67;;;8.40;96.90;;;;;;5007858;28;20372;-79
2021/01/04 07:10:25;;;;;;;5.33;4.83;;;8.40;97.20;;;;;;4947097;29;20195;-78
2021/01/04 07:13:14;;;;;;;9.33;5.37;;;8.40;96.90;;;;;;4946696;29;20201;-79
2021/01/04 07:16:17;;;;;;;8.53;5.73;;;8.40;97.20;;;;;;4908245;29;20720;-79
2021/01/04 07:18:50;;;;;;;8.20;5.30;;;8.50;96.80;;;;;;4908879;29;20207;-79
2021/01/04 07:21:35;;;;;;;6.33;4.63;;;8.50;96.90;;;;;;4895681;29;20581;-79
2021/01/04 07:24:17;;;;;;;5.10;4.70;;;8.50;96.80;;;;;;4890262;29;20173;-79
2021/01/04 07:26:51;;;;;;;5.53;4.43;;;8.50;96.90;;;;;;4893028;29;20185;-79
2021/01/04 07:29:37;;;;;;;9.87;4.00;;;8.60;97.00;;;;;;4893710;29;20207;-79
2021/01/04 07:32:36;;;;;;;7.80;4.90;;;8.60;96.60;;;;;;4878053;29;20185;-79
2021/01/04 07:35:07;;;;;;;5.70;3.97;;;8.70;96.60;;;;;;4894252;29;20197;-79
2021/01/04 07:38:04;;;;;;;4.50;4.10;;;8.70;96.80;;;;;;4881801;29;20197;-79
2021/01/04 07:40:48;;;;;;;4.40;4.00;;;8.70;96.50;;;;;;4877832;29;20199;-79
2021/01/04 07:43:28;;;;;;;5.47;4.27;;;8.80;96.70;;;;;;4894249;29;20177;-79
2021/01/04 07:46:27;;;;;;;5.70;4.37;;;8.80;96.40;;;;;;4894215;29;20220;-79
2021/01/04 07:49:15;;;;;;;3.87;3.57;;;8.80;96.40;;;;;;4934920;29;20242;-79
2021/01/04 07:52:07;;;;;;;4.03;3.77;;;8.90;96.30;;;;;;4954706;28;20210;-79
2021/01/04 07:54:52;;;;;;;4.33;3.77;;;8.90;96.20;;;;;;5011670;28;20216;-80
2021/01/04 07:58:00;;;;;;;3.87;3.57;;;8.90;96.20;;;;;;5011086;28;20196;-79
2021/01/04 08:00:56;;;;;;;3.10;2.63;;;8.80;96.50;;;;;;4992012;28;20166;-80
2021/01/04 08:03:30;;;;;;;2.53;2.43;;;8.70;96.40;;;;;;5006967;28;20239;-78
2021/01/04 08:05:59;;;;;;;3.30;3.00;;;8.70;96.30;;;;;;4992221;28;20184;-79
2021/01/04 08:08:43;;;;;;;3.37;2.70;;;8.70;96.70;;;;;;4991849;28;20181;-79
2021/01/04 08:11:38;;;;;;;3.00;2.83;;;8.60;96.70;;;;;;4991400;28;20169;-78
2021/01/04 08:14:34;;;;;;;3.17;2.95;;;8.70;96.90;;;;;;4990104;28;20264;-79
2021/01/04 08:17:09;;;;;;;2.80;2.53;;;8.60;97.00;;;;;;5000980;28;20194;-79
2021/01/04 08:19:37;;;;;;;2.90;2.60;;;8.70;97.00;;;;;;4989370;28;20166;-80
2021/01/04 08:22:41;;;;;;;2.53;2.43;;;8.70;96.90;;;;;;4989605;28;20197;-79
2021/01/04 08:25:24;;;;;;;2.77;2.37;;;8.70;96.80;;;;;;4991362;28;20558;-79
2021/01/04 08:28:27;;;;;;;2.97;2.67;;;8.70;96.90;;;;;;4989933;28;20169;-79
2021/01/04 08:31:03;;;;;;;2.03;1.93;;;8.70;96.80;;;;;;4991544;28;20681;-80
2021/01/04 08:33:44;;;;;;;1.83;1.73;;;8.70;96.60;;;;;;5005019;28;20232;-80
2021/01/04 08:36:25;;;;;;;2.17;2.07;;;8.80;96.60;;;;;;5025646;28;20330;-80
2021/01/04 08:39:11;;;;;;;6.37;2.47;;;8.80;96.40;;;;;;5009185;28;20232;-80
2021/01/04 08:41:40;;;;;;;2.50;2.30;;;8.70;96.20;;;;;;5010447;28;20161;-79
2021/01/04 08:44:19;;;;;;;7.47;2.47;;;8.70;96.50;;;;;;5008606;28;20719;-79
2021/01/04 08:46:46;;;;;;;1.50;1.40;;;8.70;96.30;;;;;;5008315;28;20176;-79
2021/01/04 08:49:28;;;;;;;1.40;1.40;;;8.70;96.20;;;;;;5009682;28;20180;-79
2021/01/04 08:51:55;;;;;;;1.40;1.40;;;8.70;96.00;;;;;;5010082;28;21040;-79
2021/01/04 08:54:21;;;;;;;2.33;1.70;;;8.70;96.10;;;;;;5008141;28;20850;-80
2021/01/04 08:56:49;;;;;;;1.70;1.60;;;8.70;96.10;;;;;;5009898;28;20272;-79
2021/01/04 08:59:26;;;;;;;2.00;1.90;;;8.70;96.20;;;;;;5007683;28;20310;-80
2021/01/04 09:01:55;;;;;;;1.97;1.87;;;8.70;96.40;;;;;;5010293;28;20267;-79
2021/01/04 09:04:30;;;;;;;2.57;2.47;;;8.80;96.20;;;;;;5009047;28;20725;-79
2021/01/04 09:07:22;;;;;;;1.90;1.80;;;8.90;95.90;;;;;;5010046;28;20741;-79
2021/01/04 09:09:51;;;;;;;2.10;2.03;;;9.00;95.80;;;;;;5006474;28;20199;-79
2021/01/04 09:12:37;;;;;;;1.60;1.50;;;8.90;95.40;;;;;;5009676;28;20264;-79
2021/01/04 09:15:10;;;;;;;1.87;1.50;;;9.00;95.20;;;;;;5010244;28;20168;-79
2021/01/04 09:17:54;;;;;;;3.03;1.50;;;9.00;94.50;;;;;;4990072;28;20240;-79
2021/01/04 09:20:20;;;;;;;1.10;1.10;;;9.00;94.20;;;;;;4990285;28;20173;-78
2021/01/04 09:22:47;;;;;;;1.40;1.40;;;8.90;94.30;;;;;;4990710;28;20174;-78
2021/01/04 09:25:26;;;;;;;1.27;1.27;;;8.90;94.00;;;;;;4991216;28;20240;-78
2021/01/04 09:27:54;;;;;;;1.77;1.77;;;8.90;94.10;;;;;;4989416;28;20281;-80
2021/01/04 09:30:23;;;;;;;1.70;1.60;;;8.90;94.60;;;;;;4990279;28;20272;-80
2021/01/04 09:32:49;;;;;;;1.42;1.38;;;8.80;94.30;;;;;;5003839;28;20181;-80
2021/01/04 09:35:23;;;;;;;1.67;1.57;;;8.80;94.30;;;;;;4990194;28;20181;-79
2021/01/04 09:38:00;;;;;;;1.10;1.10;;;8.80;94.10;;;;;;5005209;28;20189;-79
2021/01/04 09:40:26;;;;;;;1.87;1.77;;;8.80;94.30;;;;;;5006959;28;20181;-80
2021/01/04 09:43:01;;;;;;;2.70;1.57;;;8.80;94.60;;;;;;5009094;28;20177;-80
2021/01/04 09:45:27;;;;;;;2.00;1.60;;;8.80;94.40;;;;;;5009369;28;20555;-80
2021/01/04 09:47:59;;;;;;;1.53;1.50;;;8.80;94.40;;;;;;5007018;28;20181;-80
2021/01/04 09:50:33;;;;;;;1.70;1.60;;;8.80;94.40;;;;;;5007503;28;20172;-80
2021/01/04 09:53:20;;;;;;;1.80;1.70;;;8.80;94.20;;;;;;5006860;28;20263;-79
2021/01/04 09:55:50;;;;;;;1.77;1.67;;;8.80;94.40;;;;;;5007549;28;20267;-80
2021/01/04 09:58:19;;;;;;;1.53;1.50;;;8.80;94.20;;;;;;5008712;28;20197;-79
2021/01/04 10:00:46;;;;;;;1.70;1.60;;;8.80;94.20;;;;;;5009115;28;20260;-80
2021/01/04 10:03:19;;;;;;;2.53;1.43;;;8.80;93.80;;;;;;5008594;28;20725;-79
2021/01/04 10:05:47;;;;;;;1.67;1.67;;;8.80;93.90;;;;;;5008809;28;20687;-80
2021/01/04 10:08:23;;;;;;;1.87;1.77;;;8.80;93.90;;;;;;5008597;28;20200;-79
2021/01/04 10:11:08;;;;;;;2.87;1.93;;;8.80;94.00;;;;;;5009371;28;20735;-79
2021/01/04 10:13:37;;;;;;;1.60;1.60;;;8.90;94.10;;;;;;5009673;28;20712;-80
2021/01/04 10:16:18;;;;;;;1.67;1.57;;;8.90;94.10;;;;;;5008919;28;20200;-80
2021/01/04 10:18:53;;;;;;;1.70;1.67;;;9.00;94.00;;;;;;5008866;28;20284;-79
2021/01/04 10:21:27;;;;;;;1.93;1.80;;;9.10;94.10;;;;;;5009604;28;20555;-79
2021/01/04 10:23:58;;;;;;;2.33;2.23;;;9.10;94.00;;;;;;5009253;28;20165;-80
2021/01/04 10:26:24;;;;;;;2.43;2.17;;;9.10;93.60;;;;;;5009404;28;20157;-79
2021/01/04 10:28:50;;;;;;;1.90;1.80;;;9.20;93.70;;;;;;5007641;28;20255;-79
2021/01/04 10:31:21;;;;;;;2.00;2.00;;;9.20;93.80;;;;;;5009003;28;20567;-78
2021/01/04 10:33:47;;;;;;;1.73;1.63;;;9.20;93.90;;;;;;5008994;28;20171;-79
2021/01/04 10:36:12;;;;;;;2.40;2.27;;;9.20;94.10;;;;;;5009203;28;20181;-80
2021/01/04 10:38:43;;;;;;;2.92;2.65;;;9.20;94.60;;;;;;5023779;28;20201;-80
2021/01/04 10:41:12;;;;;;;2.08;1.98;;;9.30;94.60;;;;;;5009273;28;20177;-80
2021/01/04 10:43:38;;;;;;;1.67;1.67;;;9.30;94.30;;;;;;5011119;28;20277;-80
2021/01/04 10:46:25;;;;;;;4.73;2.53;;;9.30;94.30;;;;;;5009048;28;20661;-80
2021/01/04 10:49:22;;;;;;;2.10;2.00;;;9.30;94.80;;;;;;5024341;28;20493;-79
2021/01/04 10:51:50;;;;;;;2.97;2.27;;;9.30;94.90;;;;;;5008723;28;21214;-79
2021/01/04 10:54:19;;;;;;;2.30;2.10;;;9.30;94.60;;;;;;5007163;28;20172;-78
2021/01/04 10:57:01;;;;;;;2.57;2.47;;;9.40;94.80;;;;;;5007875;28;20181;-78
2021/01/04 10:59:45;;;;;;;2.90;2.70;;;9.40;94.90;;;;;;5006755;28;20266;-79
2021/01/04 11:02:12;;;;;;;2.50;2.30;;;9.50;94.60;;;;;;4992279;28;20164;-79
2021/01/04 11:04:38;;;;;;;2.58;2.38;;;9.50;94.40;;;;;;5009081;28;20234;-79
2021/01/04 11:07:16;;;;;;;3.03;2.83;;;9.50;94.60;;;;;;5008944;28;20181;-78
2021/01/04 11:09:42;;;;;;;2.45;2.25;;;9.60;94.80;;;;;;5023754;28;20176;-79
2021/01/04 11:12:21;;;;;;;2.72;2.53;;;9.60;94.70;;;;;;5007232;28;20181;-79
2021/01/04 11:14:57;;;;;;;2.13;1.95;;;9.60;94.50;;;;;;5008713;28;20717;-79
2021/01/04 11:17:27;;;;;;;2.78;2.65;;;9.70;94.40;;;;;;5008711;28;21028;-79
2021/01/04 11:20:10;;;;;;;2.20;2.10;;;9.70;95.00;;;;;;5008377;28;20166;-78
2021/01/04 11:22:36;;;;;;;2.67;2.40;;;9.70;94.70;;;;;;5019321;28;20177;-79
2021/01/04 11:25:03;;;;;;;2.83;2.72;;;9.80;94.60;;;;;;5020182;28;20208;-80
2021/01/04 11:27:28;;;;;;;2.90;2.78;;;9.80;95.00;;;;;;4997161;28;20705;-79
2021/01/04 11:29:54;;;;;;;3.97;3.13;;;9.80;94.80;;;;;;5023458;28;20299;-84
2021/01/04 11:32:22;;;;;;;2.35;2.25;;;9.80;94.90;;;;;;5008387;28;21002;-79
2021/01/04 11:34:51;;;;;;;2.40;2.20;;;9.70;94.70;;;;;;5006925;28;20283;-82
2021/01/04 11:37:20;;;;;;;2.95;2.60;;;9.60;94.60;;;;;;5019686;28;20209;-78
2021/01/04 11:39:45;;;;;;;2.75;2.20;;;9.60;95.00;;;;;;5002770;28;20192;-79
2021/01/04 11:42:11;;;;;;;2.38;2.28;;;9.60;94.80;;;;;;5012363;28;20189;-78
2021/01/04 11:44:38;;;;;;;2.63;2.53;;;9.60;94.80;;;;;;5000259;28;21045;-78
2021/01/04 11:47:05;;;;;;;3.22;2.92;;;9.50;94.70;;;;;;4992002;28;20576;-79
2021/01/04 11:49:31;;;;;;;2.20;2.10;;;9.50;94.60;;;;;;5002690;28;20212;-79
2021/01/04 11:51:57;;;;;;;2.03;1.92;;;9.40;94.80;;;;;;5003993;28;20185;-78
2021/01/04 11:54:23;;;;;;;1.55;1.55;;;9.40;94.60;;;;;;5006751;28;20200;-79
2021/01/04 11:56:49;;;;;;;2.88;2.67;;;9.30;94.90;;;;;;5020970;28;20181;-77
2021/01/04 11:59:16;;;;;;;2.70;2.50;;;9.30;94.90;;;;;;5013379;28;20205;-79
2021/01/04 12:01:42;;;;;;;3.05;2.63;;;9.20;95.50;;;;;;5006451;28;20184;-78
2021/01/04 12:04:08;;;;;;;2.28;2.10;;;9.20;95.90;;;;;;5005472;28;20185;-78
2021/01/04 12:06:35;;;;;;;2.20;1.95;;;9.20;96.00;;;;;;5017855;28;20185;-79
2021/01/04 12:09:02;;;;;;;3.17;2.58;;;9.20;96.20;;;;;;5011031;28;20192;-78
2021/01/04 12:11:37;;;;;;;3.92;2.47;;;9.20;95.60;;;;;;5004215;28;20212;-78
2021/01/04 12:14:03;;;;;;;3.88;2.47;;;9.30;95.00;;;;;;5025367;28;20185;-79
2021/01/04 12:16:32;;;;;;;3.33;2.85;;;9.30;95.40;;;;;;5009870;28;20607;-79
2021/01/04 12:18:58;;;;;;;2.70;2.50;;;9.30;95.60;;;;;;5008698;28;20287;-78
2021/01/04 12:21:24;;;;;;;2.92;2.72;;;9.30;95.70;;;;;;5008574;28;20260;-78
2021/01/04 12:23:50;;;;;;;2.08;1.98;;;9.40;95.50;;;;;;5009163;28;20584;-79
2021/01/04 12:26:17;;;;;;;2.50;2.40;;;9.40;95.10;;;;;;5009119;28;20177;-79
2021/01/04 12:28:43;;;;;;;2.80;2.58;;;9.50;95.10;;;;;;5013584;28;20228;-80
2021/01/04 12:31:09;;;;;;;2.65;2.55;;;9.60;95.00;;;;;;5019577;28;20187;-78
2021/01/04 12:33:35;;;;;;;2.15;2.05;;;9.60;94.80;;;;;;5035541;28;20189;-79
2021/01/04 12:36:01;;;;;;;2.28;1.63;;;9.50;93.90;;;;;;5009362;28;20212;-79
2021/01/04 12:38:27;;;;;;;3.90;1.70;;;9.50;93.30;;;;;;5024085;28;20209;-79
2021/01/04 12:40:53;;;;;;;4.72;2.38;;;9.40;93.80;;;;;;5009299;28;20247;-79
2021/01/04 12:43:18;;;;;;;2.42;2.22;;;9.40;94.10;;;;;;5008676;28;20947;-79
2021/01/04 12:45:44;;;;;;;2.50;2.30;;;9.50;94.20;;;;;;5008095;28;20176;-79
2021/01/04 12:48:10;;;;;;;2.72;2.53;;;9.50;94.50;;;;;;5019891;28;20185;-79
2021/01/04 12:50:36;;;;;;;2.67;2.50;;;9.60;93.90;;;;;;5026097;28;20176;-79
2021/01/04 12:53:02;;;;;;;4.70;2.53;;;9.60;94.10;;;;;;5027883;28;20242;-79
2021/01/04 12:55:27;;;;;;;2.63;2.42;;;9.60;94.20;;;;;;5028869;28;20184;-78
2021/01/04 12:57:53;;;;;;;1.83;1.70;;;9.60;94.50;;;;;;5028364;28;20203;-78
2021/01/04 13:00:23;;;;;;;1.65;1.55;;;9.60;92.80;;;;;;5012665;28;20653;-78
2021/01/04 13:02:53;;;;;;;2.63;1.92;;;9.60;93.40;;;;;;5008230;28;20157;-78
2021/01/04 13:05:20;;;;;;;1.65;1.63;;;9.50;92.90;;;;;;5009074;28;20685;-78
2021/01/04 13:07:46;;;;;;;2.20;2.03;;;9.50;92.70;;;;;;5007138;28;20199;-78
2021/01/04 13:10:15;;;;;;;6.72;1.90;;;9.50;92.70;;;;;;5008505;28;20567;-78
2021/01/04 13:12:42;;;;;;;2.17;2.08;;;9.50;92.80;;;;;;5008332;28;20188;-78
2021/01/04 13:15:09;;;;;;;1.77;1.67;;;9.50;92.70;;;;;;5006771;28;20188;-78
2021/01/04 13:17:35;;;;;;;1.70;1.60;;;9.60;92.40;;;;;;5012855;28;20213;-77
2021/01/04 13:20:02;;;;;;;1.57;1.57;;;9.50;92.10;;;;;;5009752;28;20188;-79
2021/01/04 13:22:29;;;;;;;3.10;1.60;;;9.50;92.30;;;;;;5008268;28;20173;-79
2021/01/04 13:24:56;;;;;;;2.40;2.17;;;9.60;92.40;;;;;;5008032;28;20318;-79
2021/01/04 13:27:23;;;;;;;1.38;1.35;;;9.60;92.80;;;;;;5007936;28;20181;-79
2021/01/04 13:29:51;;;;;;;1.75;1.63;;;9.60;92.40;;;;;;5006186;28;20196;-79
2021/01/04 13:32:17;;;;;;;1.80;1.70;;;9.60;92.20;;;;;;5006093;28;20216;-79
2021/01/04 13:34:44;;;;;;;1.75;1.70;;;9.50;92.10;;;;;;5007648;28;20338;-79
2021/01/04 13:37:09;;;;;;;5.70;2.40;;;9.50;92.80;;;;;;5007882;28;20188;-79
2021/01/04 13:39:35;;;;;;;2.23;2.03;;;9.60;92.70;;;;;;5007666;28;20730;-78
2021/01/04 13:42:01;;;;;;;2.08;1.98;;;9.50;93.00;;;;;;5007437;28;20216;-79